createdAt,value
2022-11-15T00:01:20.559Z,5.28
2022-11-15T00:04:07.677Z,5.35
2022-11-15T00:06:55.885Z,5.00
2022-11-15T00:09:45.985Z,4.87
2022-11-15T00:12:33.405Z,5.10
2022-11-15T00:15:20.650Z,5.35
2022-11-15T00:18:08.483Z,4.75
2022-11-15T00:20:55.380Z,5.20
2022-11-15T00:23:43.648Z,5.13
2022-11-15T00:26:30.497Z,5.85
2022-11-15T00:29:17.627Z,5.72
2022-11-15T00:32:07.307Z,5.55
2022-11-15T00:34:56.391Z,5.80
2022-11-15T00:37:43.396Z,5.10
2022-11-15T00:40:31.799Z,4.97
2022-11-15T00:43:18.652Z,5.35
2022-11-15T00:46:05.652Z,5.15
2022-11-15T00:48:52.859Z,5.07
2022-11-15T00:51:39.656Z,5.37
2022-11-15T00:54:26.328Z,5.28
2022-11-15T00:57:14.559Z,5.20
2022-11-15T01:00:01.325Z,5.20
2022-11-15T01:02:48.848Z,5.32
2022-11-15T01:05:35.967Z,5.53
2022-11-15T01:08:22.881Z,5.70
2022-11-15T01:11:12.359Z,5.25
2022-11-15T01:14:00.429Z,4.80
2022-11-15T01:16:47.510Z,4.90
2022-11-15T01:19:34.261Z,5.50
2022-11-15T01:22:21.060Z,5.70
2022-11-15T01:25:08.453Z,5.40
2022-11-15T01:27:55.233Z,5.25
2022-11-15T01:30:43.053Z,5.00
2022-11-15T01:33:31.033Z,4.70
2022-11-15T01:36:20.201Z,5.10
2022-11-15T01:39:07.014Z,4.82
2022-11-15T01:41:54.030Z,5.35
2022-11-15T01:44:44.070Z,5.20
2022-11-15T01:47:35.420Z,5.10
2022-11-15T01:50:27.994Z,4.85
2022-11-15T01:53:14.797Z,4.90
2022-11-15T01:56:04.554Z,5.15
2022-11-15T01:58:53.413Z,5.18
2022-11-15T02:01:40.518Z,5.10
2022-11-15T02:04:31.446Z,4.90
2022-11-15T02:07:20.616Z,5.32
2022-11-15T02:10:11.608Z,5.32
2022-11-15T02:13:01.599Z,5.25
2022-11-15T02:16:03.392Z,5.43
2022-11-15T02:18:57.576Z,5.20
2022-11-15T02:21:56.177Z,5.22
2022-11-15T02:25:08.366Z,5.60
2022-11-15T02:28:33.069Z,4.75
2022-11-15T02:31:28.122Z,4.72
2022-11-15T02:34:28.413Z,4.97
2022-11-15T02:37:22.790Z,5.10
2022-11-15T02:40:13.912Z,5.18
2022-11-15T02:43:26.864Z,4.90
2022-11-15T02:46:20.731Z,5.35
2022-11-15T02:49:08.824Z,5.57
2022-11-15T02:51:57.913Z,5.00
2022-11-15T02:54:44.934Z,5.07
2022-11-15T02:57:43.496Z,5.68
2022-11-15T03:00:34.639Z,5.78
2022-11-15T03:03:36.733Z,5.88
2022-11-15T03:06:34.278Z,5.45
2022-11-15T03:09:28.030Z,5.53
2022-11-15T03:12:23.479Z,5.85
2022-11-15T03:15:15.485Z,5.38
2022-11-15T03:18:06.971Z,5.50
2022-11-15T03:20:54.825Z,5.68
2022-11-15T03:23:45.198Z,5.20
2022-11-15T03:26:32.765Z,5.07
2022-11-15T03:29:23.980Z,5.57
2022-11-15T03:32:15.853Z,5.70
2022-11-15T03:35:06.896Z,5.25
2022-11-15T03:37:57.356Z,5.05
2022-11-15T03:40:49.682Z,5.07
2022-11-15T03:43:42.022Z,5.03
2022-11-15T03:46:34.543Z,4.88
2022-11-15T03:49:28.066Z,4.72
2022-11-15T03:52:15.142Z,5.38
2022-11-15T03:55:03.747Z,4.88
2022-11-15T03:57:55.117Z,5.28
2022-11-15T04:00:41.923Z,5.32
2022-11-15T04:03:28.842Z,5.53
2022-11-15T04:06:15.383Z,4.88
2022-11-15T04:09:01.760Z,5.45
2022-11-15T04:11:48.171Z,5.18
2022-11-15T04:14:35.957Z,5.20
2022-11-15T04:17:22.630Z,4.75
2022-11-15T04:20:30.377Z,5.10
2022-11-15T04:23:36.125Z,5.45
2022-11-15T04:26:25.029Z,5.90
2022-11-15T04:29:29.677Z,6.30
2022-11-15T04:32:17.619Z,5.40
2022-11-15T04:35:04.751Z,5.72
2022-11-15T04:37:51.802Z,5.88
2022-11-15T04:40:39.482Z,5.28
2022-11-15T04:43:26.166Z,5.25
2022-11-15T04:46:12.977Z,5.68
2022-11-15T04:49:01.203Z,5.50
2022-11-15T04:51:47.908Z,4.88
2022-11-15T04:54:34.902Z,5.43
2022-11-15T04:57:21.750Z,5.60
2022-11-15T05:00:11.675Z,5.32
2022-11-15T05:03:16.249Z,5.65
2022-11-15T05:06:04.327Z,5.93
2022-11-15T05:08:51.177Z,5.27
2022-11-15T05:11:38.404Z,5.32
2022-11-15T05:14:24.967Z,6.38
2022-11-15T05:17:11.717Z,7.05
2022-11-15T05:19:58.869Z,5.90
2022-11-15T05:22:47.047Z,6.72
2022-11-15T05:25:34.051Z,5.72
2022-11-15T05:28:21.446Z,6.72
2022-11-15T05:31:09.640Z,7.78
2022-11-15T05:33:56.836Z,7.38
2022-11-15T05:36:45.742Z,7.63
2022-11-15T05:39:33.608Z,7.20
2022-11-15T05:42:20.792Z,6.15
2022-11-15T05:45:10.032Z,6.07
2022-11-15T05:47:59.944Z,6.72
2022-11-15T05:50:49.238Z,6.32
2022-11-15T05:53:38.250Z,6.40
2022-11-15T05:56:26.889Z,6.65
2022-11-15T05:59:14.152Z,5.93
2022-11-15T06:02:01.280Z,5.50
2022-11-15T06:04:48.095Z,5.70
2022-11-15T06:07:35.176Z,5.50
2022-11-15T06:10:35.990Z,4.80
2022-11-15T06:13:26.356Z,5.72
2022-11-15T06:16:13.127Z,5.03
2022-11-15T06:19:00.313Z,4.18
2022-11-15T06:21:47.568Z,4.63
2022-11-15T06:24:34.644Z,5.10
2022-11-15T06:27:21.523Z,4.88
2022-11-15T06:30:10.892Z,4.60
2022-11-15T06:33:02.940Z,4.90
2022-11-15T06:35:49.942Z,4.57
2022-11-15T06:38:37.611Z,5.35
2022-11-15T06:44:58.556Z,4.80
2022-11-15T06:47:50.358Z,4.97
2022-11-15T06:50:40.068Z,5.40
2022-11-15T06:53:27.524Z,5.32
2022-11-15T06:56:14.467Z,4.82
2022-11-15T06:59:01.778Z,4.80
2022-11-15T07:01:48.600Z,5.07
2022-11-15T07:04:37.157Z,5.50
2022-11-15T07:07:24.174Z,5.45
2022-11-15T07:10:11.840Z,5.80
2022-11-15T07:12:59.246Z,5.82
2022-11-15T07:15:46.171Z,5.63
2022-11-15T07:18:33.329Z,5.40
2022-11-15T07:21:26.240Z,40.40
2022-11-15T07:24:14.295Z,8.43
2022-11-15T07:27:00.863Z,8.20
2022-11-15T07:29:47.886Z,7.68
2022-11-15T07:32:34.886Z,7.43
2022-11-15T07:35:22.177Z,6.50
2022-11-15T07:38:10.466Z,6.05
2022-11-15T07:40:59.587Z,6.95
2022-11-15T07:43:46.689Z,6.80
2022-11-15T07:46:33.848Z,7.25
2022-11-15T07:49:21.198Z,6.53
2022-11-15T07:52:08.144Z,7.18
2022-11-15T07:54:56.150Z,7.22
2022-11-15T07:57:43.020Z,7.82
2022-11-15T08:00:30.168Z,7.85
2022-11-15T08:03:18.435Z,7.15
2022-11-15T08:06:05.421Z,7.65
2022-11-15T08:08:52.019Z,10.07
2022-11-15T08:11:40.143Z,15.05
2022-11-15T08:14:27.342Z,12.25
2022-11-15T08:17:13.853Z,9.93
2022-11-15T08:20:00.460Z,10.55
2022-11-15T08:22:47.706Z,10.00
2022-11-15T08:25:38.335Z,9.23
2022-11-15T08:28:26.191Z,8.05
2022-11-15T08:31:16.566Z,7.88
2022-11-15T08:34:04.492Z,6.53
2022-11-15T08:36:51.514Z,7.78
2022-11-15T08:39:38.909Z,6.18
2022-11-15T08:42:26.043Z,6.25
2022-11-15T08:45:16.358Z,6.03
2022-11-15T08:48:04.144Z,6.18
2022-11-15T08:50:51.281Z,5.40
2022-11-15T08:53:38.460Z,5.57
2022-11-15T08:56:26.198Z,5.82
2022-11-15T08:59:12.797Z,5.32
2022-11-15T09:02:00.836Z,5.32
2022-11-15T09:04:47.980Z,4.35
2022-11-15T09:07:36.751Z,4.77
2022-11-15T09:10:23.913Z,5.20
2022-11-15T09:13:10.832Z,4.78
2022-11-15T09:16:00.502Z,4.75
2022-11-15T09:18:48.835Z,4.93
2022-11-15T09:21:35.739Z,4.10
2022-11-15T09:24:23.548Z,4.20
2022-11-15T09:27:10.728Z,4.80
2022-11-15T09:29:58.367Z,4.28
2022-11-15T09:32:45.416Z,4.90
2022-11-15T09:35:33.686Z,4.63
2022-11-15T09:38:21.005Z,5.47
2022-11-15T09:41:33.309Z,5.47
2022-11-15T09:45:06.829Z,4.75
2022-11-15T09:48:15.751Z,4.88
2022-11-15T09:51:20.998Z,5.03
2022-11-15T09:54:37.599Z,5.45
2022-11-15T09:56:45.900Z,5.45
2022-11-15T09:59:41.308Z,5.15
2022-11-15T10:02:45.233Z,4.40
2022-11-15T10:05:20.375Z,4.57
2022-11-15T10:08:04.126Z,4.55
2022-11-15T10:10:38.649Z,4.07
2022-11-15T10:13:07.551Z,3.60
2022-11-15T10:15:36.410Z,3.80
2022-11-15T10:18:19.365Z,4.43
2022-11-15T10:20:51.443Z,3.15
2022-11-15T10:23:23.912Z,3.47
2022-11-15T10:25:55.338Z,3.42
2022-11-15T10:28:28.330Z,3.13
2022-11-15T10:30:58.047Z,3.90
2022-11-15T10:33:37.394Z,3.60
2022-11-15T10:36:25.778Z,3.42
2022-11-15T10:38:57.853Z,3.70
2022-11-15T10:41:42.165Z,3.20
2022-11-15T10:44:25.828Z,3.53
2022-11-15T10:47:25.881Z,4.15
2022-11-15T10:50:03.183Z,4.60
2022-11-15T10:52:33.528Z,4.28
2022-11-15T10:55:28.749Z,3.90
2022-11-15T10:58:06.437Z,3.50
2022-11-15T11:00:40.340Z,3.88
2022-11-15T11:03:29.707Z,4.00
2022-11-15T11:06:10.250Z,3.72
2022-11-15T11:08:39.263Z,3.38
2022-11-15T11:11:11.439Z,3.60
2022-11-15T11:13:41.226Z,3.50
2022-11-15T11:16:37.903Z,3.35
2022-11-15T11:19:19.651Z,3.30
2022-11-15T11:21:54.280Z,3.38
2022-11-15T11:24:31.024Z,3.30
2022-11-15T11:27:16.300Z,2.88
2022-11-15T11:30:00.232Z,2.80
2022-11-15T11:32:55.387Z,2.85
2022-11-15T11:35:30.191Z,2.78
2022-11-15T11:38:26.866Z,3.10
2022-11-15T11:41:05.940Z,3.20
2022-11-15T11:43:49.274Z,2.88
2022-11-15T11:46:39.568Z,2.63
2022-11-15T11:49:12.079Z,2.80
2022-11-15T11:51:43.943Z,2.77
2022-11-15T11:54:16.456Z,2.70
2022-11-15T11:56:47.393Z,2.65
2022-11-15T11:59:23.606Z,3.13
2022-11-15T12:01:52.387Z,3.22
2022-11-15T12:04:28.076Z,3.10
2022-11-15T12:07:01.008Z,3.00
2022-11-15T12:09:34.600Z,2.50
2022-11-15T12:12:10.732Z,3.00
2022-11-15T12:14:45.439Z,3.20
2022-11-15T12:17:15.075Z,3.40
2022-11-15T12:19:44.079Z,3.08
2022-11-15T12:22:18.988Z,3.05
2022-11-15T12:24:55.491Z,3.20
2022-11-15T12:27:39.580Z,3.75
2022-11-15T12:30:15.378Z,3.27
2022-11-15T12:33:00.127Z,3.47
2022-11-15T12:35:39.694Z,3.80
2022-11-15T12:38:12.730Z,4.38
2022-11-15T12:41:01.893Z,3.92
2022-11-15T12:43:40.930Z,3.60
2022-11-15T12:47:06.052Z,4.00
2022-11-15T12:49:48.350Z,3.70
2022-11-15T12:52:17.444Z,3.72
2022-11-15T12:55:06.040Z,3.33
2022-11-15T12:57:51.336Z,3.57
2022-11-15T13:00:49.640Z,3.20
2022-11-15T13:03:30.308Z,3.22
2022-11-15T13:06:38.209Z,3.08
2022-11-15T13:09:26.418Z,3.05
2022-11-15T13:11:55.168Z,3.10
2022-11-15T13:14:57.621Z,3.30
2022-11-15T13:17:33.753Z,2.85
2022-11-15T13:20:21.694Z,3.20
2022-11-15T13:22:55.622Z,3.20
2022-11-15T13:26:00.201Z,3.10
2022-11-15T13:28:54.727Z,3.22
2022-11-15T13:31:37.053Z,2.78
2022-11-15T13:34:49.933Z,3.22
2022-11-15T13:37:44.462Z,3.25
2022-11-15T13:40:31.532Z,3.33
2022-11-15T13:43:28.812Z,3.33
2022-11-15T13:46:30.938Z,2.63
2022-11-15T13:49:07.470Z,3.28
2022-11-15T13:51:42.155Z,3.17
2022-11-15T13:54:22.846Z,3.20
2022-11-15T13:59:51.442Z,3.47
2022-11-15T14:02:33.478Z,3.50
2022-11-15T14:05:18.309Z,3.75
2022-11-15T14:07:57.178Z,3.20
2022-11-15T14:10:33.690Z,3.75
2022-11-15T14:13:02.640Z,3.25
2022-11-15T14:15:34.308Z,3.63
2022-11-15T14:18:02.953Z,3.58
2022-11-15T14:20:36.318Z,3.87
2022-11-15T14:23:21.303Z,3.90
2022-11-15T14:25:59.467Z,3.55
2022-11-15T14:28:34.492Z,3.90
2022-11-15T14:31:03.441Z,4.28
2022-11-15T14:33:35.274Z,4.00
2022-11-15T14:36:07.659Z,3.78
2022-11-15T14:38:36.706Z,3.45
2022-11-15T14:41:19.357Z,3.60
2022-11-15T14:43:48.052Z,3.70
2022-11-15T14:46:21.138Z,3.67
2022-11-15T14:48:52.294Z,3.80
2022-11-15T14:51:23.872Z,3.53
2022-11-15T14:54:01.139Z,3.42
2022-11-15T14:56:30.585Z,3.67
2022-11-15T14:58:59.522Z,3.57
2022-11-15T15:01:28.532Z,3.83
2022-11-15T15:03:59.210Z,3.75
2022-11-15T15:06:32.846Z,3.50
2022-11-15T15:09:01.559Z,3.60
2022-11-15T15:11:32.679Z,3.60
2022-11-15T15:14:05.003Z,3.47
2022-11-15T15:16:36.165Z,3.70
2022-11-15T15:19:04.658Z,3.45
2022-11-15T15:21:37.209Z,3.10
2022-11-15T15:24:06.146Z,4.03
2022-11-15T15:26:37.392Z,3.25
2022-11-15T15:29:28.315Z,3.17
2022-11-15T15:31:58.173Z,3.45
2022-11-15T15:34:27.627Z,3.50
2022-11-15T15:37:11.811Z,3.60
2022-11-15T15:39:40.605Z,3.35
2022-11-15T15:42:10.504Z,3.88
2022-11-15T15:44:48.166Z,4.50
2022-11-15T15:47:19.641Z,4.22
2022-11-15T15:49:48.345Z,4.70
2022-11-15T15:52:17.139Z,3.90
2022-11-15T15:54:46.323Z,4.47
2022-11-15T15:57:16.414Z,4.10
2022-11-15T15:59:44.995Z,4.85
2022-11-15T16:02:15.819Z,4.60
2022-11-15T16:04:44.479Z,5.90
2022-11-15T16:07:19.508Z,6.10
2022-11-15T16:10:03.383Z,5.80
2022-11-15T16:12:34.748Z,6.07
2022-11-15T16:15:06.641Z,5.17
2022-11-15T16:17:51.500Z,6.20
2022-11-15T16:20:35.025Z,6.47
2022-11-15T16:23:08.966Z,6.00
2022-11-15T16:25:43.345Z,6.65
2022-11-15T16:28:25.164Z,7.13
2022-11-15T16:31:02.553Z,7.88
2022-11-15T16:33:31.981Z,9.57
2022-11-15T16:36:00.847Z,10.60
2022-11-15T16:38:29.472Z,10.50
2022-11-15T16:40:58.203Z,10.53
2022-11-15T16:43:27.681Z,9.65
2022-11-15T16:45:56.488Z,9.82
2022-11-15T16:48:26.244Z,8.85
2022-11-15T16:51:00.221Z,8.85
2022-11-15T16:53:29.010Z,8.20
2022-11-15T16:55:57.948Z,7.63
2022-11-15T16:58:27.518Z,7.75
2022-11-15T17:00:57.203Z,8.75
2022-11-15T17:03:26.127Z,10.30
2022-11-15T17:05:54.594Z,10.20
2022-11-15T17:08:24.191Z,11.93
2022-11-15T17:10:56.230Z,11.90
2022-11-15T17:13:37.520Z,9.20
2022-11-15T17:16:10.407Z,9.93
2022-11-15T17:18:41.984Z,8.70
2022-11-15T17:21:13.993Z,9.30
2022-11-15T17:23:42.549Z,8.77
2022-11-15T17:26:28.818Z,9.18
2022-11-15T17:29:00.973Z,9.15
2022-11-15T17:31:30.897Z,9.80
2022-11-15T17:33:59.501Z,10.65
2022-11-15T17:36:28.098Z,10.43
2022-11-15T17:38:59.536Z,10.77
2022-11-15T17:41:28.865Z,11.07
2022-11-15T17:44:00.148Z,10.93
2022-11-15T17:46:30.221Z,10.40
2022-11-15T17:49:06.095Z,10.43
2022-11-15T17:51:34.897Z,10.77
2022-11-15T17:54:14.207Z,10.57
2022-11-15T17:56:43.420Z,8.40
2022-11-15T17:59:17.245Z,9.05
2022-11-15T18:01:48.852Z,8.73
2022-11-15T18:04:41.298Z,8.45
2022-11-15T18:07:27.218Z,8.98
2022-11-15T18:09:57.477Z,8.30
2022-11-15T18:12:36.247Z,8.10
2022-11-15T18:15:09.842Z,8.55
2022-11-15T18:17:40.164Z,8.70
2022-11-15T18:20:10.087Z,9.23
2022-11-15T18:22:38.503Z,9.03
2022-11-15T18:25:11.615Z,9.43
2022-11-15T18:27:41.828Z,10.32
2022-11-15T18:30:14.500Z,9.73
2022-11-15T18:32:43.043Z,9.95
2022-11-15T18:35:11.650Z,8.77
2022-11-15T18:37:40.477Z,9.40
2022-11-15T18:40:12.709Z,9.93
2022-11-15T18:42:41.152Z,10.45
2022-11-15T18:45:14.140Z,9.73
2022-11-15T18:47:43.651Z,10.23
2022-11-15T18:50:14.702Z,10.60
2022-11-15T18:52:43.220Z,10.35
2022-11-15T18:55:12.171Z,9.85
2022-11-15T18:57:40.925Z,9.75
2022-11-15T19:00:15.917Z,9.60
2022-11-15T19:02:51.571Z,8.82
2022-11-15T19:05:24.809Z,7.75
2022-11-15T19:07:53.483Z,8.20
2022-11-15T19:10:22.237Z,7.88
2022-11-15T19:12:59.445Z,8.30
2022-11-15T19:15:58.007Z,8.85
2022-11-15T19:18:28.592Z,8.85
2022-11-15T19:21:04.458Z,8.00
2022-11-15T19:23:42.410Z,10.02
2022-11-15T19:26:12.860Z,12.70
2022-11-15T19:28:41.655Z,12.63
2022-11-15T19:31:12.852Z,11.38
2022-11-15T19:33:43.306Z,10.32
2022-11-15T19:36:13.903Z,9.35
2022-11-15T19:38:42.923Z,11.50
2022-11-15T19:41:13.410Z,15.07
2022-11-15T19:43:44.574Z,15.57
2022-11-15T19:46:13.568Z,15.75
2022-11-15T19:48:43.445Z,15.25
2022-11-15T19:51:14.318Z,13.27
2022-11-15T19:53:47.446Z,12.30
2022-11-15T19:56:17.527Z,11.30
2022-11-15T19:58:48.142Z,10.52
2022-11-15T20:01:19.289Z,11.07
2022-11-15T20:03:56.584Z,10.20
2022-11-15T20:06:26.721Z,10.60
2022-11-15T20:08:55.614Z,10.40
2022-11-15T20:11:24.554Z,10.63
2022-11-15T20:13:53.278Z,10.13
2022-11-15T20:16:25.251Z,10.63
2022-11-15T20:18:55.798Z,9.70
2022-11-15T20:21:24.815Z,9.68
2022-11-15T20:23:57.397Z,9.50
2022-11-15T20:26:39.954Z,8.13
2022-11-15T20:29:10.017Z,8.83
2022-11-15T20:31:39.041Z,9.32
2022-11-15T20:34:11.209Z,9.30
2022-11-15T20:36:39.920Z,8.23
2022-11-15T20:39:08.722Z,7.93
2022-11-15T20:41:37.288Z,7.63
2022-11-15T20:44:05.849Z,7.90
2022-11-15T20:46:34.367Z,7.50
2022-11-15T20:49:06.468Z,7.85
2022-11-15T20:51:57.000Z,7.30
2022-11-15T20:54:25.506Z,7.27
2022-11-15T20:56:54.041Z,8.07
2022-11-15T20:59:22.704Z,7.13
2022-11-15T21:01:59.230Z,7.40
2022-11-15T21:04:28.238Z,7.13
2022-11-15T21:06:58.917Z,6.57
2022-11-15T21:09:53.022Z,6.80
2022-11-15T21:12:21.124Z,6.88
2022-11-15T21:14:51.873Z,15.38
2022-11-15T21:17:23.213Z,9.75
2022-11-15T21:19:51.784Z,19.23
2022-11-15T21:22:21.578Z,23.02
2022-11-15T21:24:50.114Z,25.10
2022-11-15T21:27:19.399Z,13.38
2022-11-15T21:29:49.821Z,48.95
2022-11-15T21:32:18.401Z,36.07
2022-11-15T21:34:47.055Z,9.90
2022-11-15T21:37:15.675Z,34.83
2022-11-15T21:39:46.849Z,28.33
2022-11-15T21:42:15.496Z,35.42
2022-11-15T21:44:44.176Z,7.50
2022-11-15T21:47:12.757Z,5.32
2022-11-15T21:49:42.059Z,15.18
2022-11-15T21:52:10.555Z,14.63
2022-11-15T21:54:41.116Z,21.35
2022-11-15T21:57:10.777Z,11.50
2022-11-15T21:59:59.966Z,14.25
2022-11-15T22:02:27.488Z,32.47
2022-11-15T22:04:56.070Z,46.47
2022-11-15T22:07:24.372Z,11.80
2022-11-15T22:09:53.184Z,23.57
2022-11-15T22:12:28.439Z,15.23
2022-11-15T22:14:58.341Z,9.93
2022-11-15T22:17:47.682Z,7.18
2022-11-15T22:20:42.885Z,5.95
2022-11-15T22:23:05.495Z,14.83
2022-11-15T22:25:34.224Z,51.15
2022-11-15T22:28:04.097Z,19.35
2022-11-15T22:30:32.670Z,27.77
2022-11-15T22:33:01.138Z,29.63
2022-11-15T22:35:29.594Z,63.93
2022-11-15T22:37:58.157Z,9.30
2022-11-15T22:40:26.921Z,5.63
2022-11-15T22:42:55.719Z,5.30
2022-11-15T22:45:33.678Z,5.20
2022-11-15T22:48:02.249Z,5.17
2022-11-15T22:50:36.603Z,4.95
2022-11-15T22:53:05.192Z,5.55
2022-11-15T22:55:39.402Z,5.10
2022-11-15T22:58:08.691Z,5.05
2022-11-15T23:00:38.592Z,5.10
2022-11-15T23:03:07.039Z,5.15
2022-11-15T23:05:35.624Z,5.50
2022-11-15T23:08:07.218Z,5.68
2022-11-15T23:10:56.084Z,4.85
2022-11-15T23:13:27.392Z,5.13
2022-11-15T23:16:24.061Z,5.30
2022-11-15T23:18:54.018Z,4.63
2022-11-15T23:21:38.128Z,5.13
2022-11-15T23:24:09.997Z,4.85
2022-11-15T23:26:38.486Z,5.60
2022-11-15T23:29:14.638Z,5.35
2022-11-15T23:32:02.990Z,5.63
2022-11-15T23:34:32.226Z,5.13
2022-11-15T23:37:00.895Z,5.30
2022-11-15T23:39:29.533Z,5.33
2022-11-15T23:41:58.175Z,4.90
2022-11-15T23:44:26.570Z,5.22
2022-11-15T23:46:56.179Z,5.57
2022-11-15T23:49:24.641Z,5.18
2022-11-15T23:51:52.858Z,5.77
2022-11-15T23:54:21.376Z,5.95
2022-11-15T23:56:49.584Z,5.80
2022-11-15T23:59:18.269Z,6.07
